Time;durP1;ratioP1;P1;durP2;ratioP2;P2;SDS_P1;SDS_P2;PMS_P1;PMS_P2;Temp;Humidity;BMP_temperature;BMP_pressure;BME280_temperature;BME280_humidity;BME280_pressure;Samples;Min_cycle;Max_cycle;Signal;HPM_P1;HPM_P2
2022/12/30 00:01:14;;;;;;;9.60;3.80;;;7.50;1.00;;;;;;5055948;28;20876;-67
2022/12/30 00:03:40;;;;;;;7.37;3.40;;;7.50;1.00;;;;;;5056089;28;20400;-67
2022/12/30 00:06:14;;;;;;;8.17;3.33;;;7.50;1.00;;;;;;5055405;28;20467;-67
2022/12/30 00:08:47;;;;;;;16.33;3.47;;;7.60;1.00;;;;;;5054642;28;20199;-72
2022/12/30 00:11:15;;;;;;;10.10;3.60;;;7.60;1.00;;;;;;5055765;28;20401;-67
2022/12/30 00:33:19;;;;;;;9.20;3.40;;;7.60;1.00;;;;;;5055387;28;20395;-69
2022/12/30 00:35:44;;;;;;;9.70;3.73;;;7.60;1.00;;;;;;5054419;28;20429;-71
2022/12/30 00:38:10;;;;;;;4.50;2.97;;;7.60;1.00;;;;;;5054265;28;20413;-71
2022/12/30 00:40:36;;;;;;;7.77;3.80;;;7.60;1.00;;;;;;5055425;28;20171;-67
2022/12/30 00:43:07;;;;;;;7.93;3.43;;;7.60;1.00;;;;;;5055590;28;20171;-71
2022/12/30 00:45:41;;;;;;;8.03;3.00;;;7.70;1.00;;;;;;5054546;28;20198;-72
2022/12/30 00:56:21;;;;;;;10.70;3.83;;;7.70;1.00;;;;;;5054783;28;20762;-67
2022/12/30 00:58:47;;;;;;;4.90;3.23;;;7.70;1.00;;;;;;5055118;28;20376;-71
2022/12/30 01:01:12;;;;;;;10.37;4.07;;;7.70;1.00;;;;;;5054915;28;20173;-67
2022/12/30 01:03:38;;;;;;;13.17;4.30;;;7.60;1.00;;;;;;5054980;28;20170;-67
2022/12/30 01:06:08;;;;;;;11.00;3.37;;;7.60;1.00;;;;;;5054303;28;20496;-72
2022/12/30 01:08:35;;;;;;;15.97;4.87;;;7.60;1.00;;;;;;5054384;28;20219;-68
2022/12/30 01:11:08;;;;;;;13.37;4.03;;;7.60;1.00;;;;;;5054736;28;20421;-70
2022/12/30 01:13:34;;;;;;;6.87;2.90;;;7.60;1.00;;;;;;5054773;28;20390;-68
2022/12/30 01:16:12;;;;;;;4.50;4.00;;;7.60;1.00;;;;;;5054515;28;20496;-66
2022/12/30 01:18:37;;;;;;;7.77;3.87;;;7.60;1.00;;;;;;5054776;28;20405;-72
2022/12/30 01:21:05;;;;;;;8.10;4.87;;;7.60;1.00;;;;;;5054767;28;20433;-67
2022/12/30 01:23:30;;;;;;;6.00;3.80;;;7.60;1.00;;;;;;5054723;28;20174;-67
2022/12/30 01:26:03;;;;;;;7.37;3.73;;;7.50;1.00;;;;;;5053218;28;20820;-71
2022/12/30 01:28:30;;;;;;;10.00;3.30;;;7.50;1.00;;;;;;5053211;28;20203;-67
2022/12/30 01:30:56;;;;;;;11.50;4.57;;;7.50;1.00;;;;;;5054684;28;20406;-67
2022/12/30 01:33:22;;;;;;;6.97;2.33;;;7.50;1.00;;;;;;5054448;28;20964;-71
2022/12/30 01:35:48;;;;;;;14.97;3.70;;;7.60;1.00;;;;;;5053714;28;20445;-67
2022/12/30 01:38:15;;;;;;;10.80;3.37;;;7.60;1.00;;;;;;5054317;28;20186;-67
2022/12/30 01:40:41;;;;;;;13.67;3.03;;;7.50;1.00;;;;;;5054329;28;20163;-68
2022/12/30 01:43:12;;;;;;;6.07;2.60;;;7.60;1.00;;;;;;5054171;28;20813;-71
2022/12/30 01:45:38;;;;;;;12.23;4.77;;;7.60;1.00;;;;;;5052853;28;20874;-72
2022/12/30 01:48:10;;;;;;;2.73;2.30;;;7.60;1.00;;;;;;5054095;28;20496;-73
2022/12/30 01:50:46;;;;;;;10.57;3.30;;;7.60;1.00;;;;;;5054125;28;20405;-67
2022/12/30 01:53:21;;;;;;;4.10;2.40;;;7.60;1.00;;;;;;5054057;28;20431;-71
2022/12/30 01:56:00;;;;;;;5.17;3.23;;;7.60;1.00;;;;;;5053163;28;20773;-67
2022/12/30 01:58:33;;;;;;;16.70;4.23;;;7.60;1.00;;;;;;5053980;28;20500;-68
2022/12/30 02:01:00;;;;;;;11.17;3.60;;;7.70;1.00;;;;;;5054142;28;20754;-66
2022/12/30 02:03:33;;;;;;;9.10;3.00;;;7.70;1.00;;;;;;5052207;28;20413;-72
2022/12/30 02:05:59;;;;;;;9.03;3.40;;;7.60;1.00;;;;;;5052914;28;20440;-67
2022/12/30 02:08:27;;;;;;;5.70;3.50;;;7.70;1.00;;;;;;5053694;28;20452;-68
2022/12/30 02:10:54;;;;;;;11.33;4.47;;;7.60;1.00;;;;;;5053972;28;20171;-66
2022/12/30 02:13:21;;;;;;;6.60;3.77;;;7.60;99.90;;;;;;5053717;28;20386;-71
2022/12/30 02:16:29;;;;;;;7.70;3.03;;;7.70;99.90;;;;;;5052809;28;20452;-67
2022/12/30 02:19:43;;;;;;;9.93;3.73;;;7.70;99.90;;;;;;5053063;28;20390;-67
2022/12/30 02:22:48;;;;;;;10.17;3.80;;;7.70;99.90;;;;;;5052705;28;20492;-66
2022/12/30 02:25:44;;;;;;;10.17;3.67;;;7.70;99.90;;;;;;5052770;28;20405;-67
2022/12/30 02:28:33;;;;;;;4.27;3.13;;;7.60;99.90;;;;;;5052144;28;20834;-71
2022/12/30 02:31:17;;;;;;;13.63;4.10;;;7.60;99.90;;;;;;5053457;28;20417;-71
2022/12/30 02:33:57;;;;;;;6.80;3.40;;;7.60;99.90;;;;;;5053328;28;20804;-70
2022/12/30 02:36:35;;;;;;;7.13;3.50;;;7.70;99.90;;;;;;5052073;28;20448;-67
2022/12/30 02:39:19;;;;;;;15.73;4.97;;;7.60;99.90;;;;;;5053316;28;20397;-70
2022/12/30 02:45:12;;;;;;;5.77;2.90;;;7.60;99.90;;;;;;5052496;28;20476;-71
2022/12/30 02:47:41;;;;;;;7.93;4.47;;;7.50;99.90;;;;;;5053125;28;20946;-71
2022/12/30 02:53:03;;;;;;;7.50;3.50;;;7.50;99.90;;;;;;5052529;28;20824;-70
2022/12/30 02:55:29;;;;;;;4.80;3.77;;;7.40;99.90;;;;;;5052302;28;20464;-72
2022/12/30 02:57:54;;;;;;;11.47;3.50;;;7.40;99.90;;;;;;5052969;28;20484;-70
2022/12/30 03:06:46;;;;;;;6.80;3.37;;;7.40;99.90;;;;;;5052200;28;20400;-67
2022/12/30 03:11:12;;;;;;;8.33;2.83;;;7.40;99.90;;;;;;5052264;28;20435;-71
2022/12/30 03:13:01;;;;;;;7.77;2.53;;;7.50;99.90;;;;;;5052571;28;20455;-71
2022/12/30 03:15:39;;;;;;;3.13;2.83;;;7.40;99.90;;;;;;5051043;28;20464;-71
2022/12/30 03:18:06;;;;;;;6.20;3.67;;;7.40;99.90;;;;;;5052843;28;20396;-70
2022/12/30 03:20:34;;;;;;;14.00;3.37;;;7.40;99.90;;;;;;5052767;28;20394;-71
2022/12/30 03:28:34;;;;;;;10.03;4.03;;;7.40;99.90;;;;;;5052573;28;20599;-67
2022/12/30 03:31:03;;;;;;;7.47;2.90;;;7.40;99.90;;;;;;5052821;28;20400;-71
2022/12/30 03:33:31;;;;;;;10.30;3.20;;;7.30;99.90;;;;;;5051497;28;20910;-66
2022/12/30 03:36:04;;;;;;;6.00;2.40;;;7.30;99.90;;;;;;5052002;28;20425;-66
2022/12/30 03:38:34;;;;;;;13.17;3.67;;;7.30;99.90;;;;;;5052561;28;20406;-67
2022/12/30 03:41:03;;;;;;;4.77;3.20;;;7.30;99.90;;;;;;5052813;28;20416;-66
2022/12/30 03:43:31;;;;;;;10.50;3.70;;;7.30;99.90;;;;;;5052620;28;20432;-67
2022/12/30 03:45:57;;;;;;;13.20;3.30;;;7.40;99.90;;;;;;5051205;28;20460;-67
2022/12/30 03:48:22;;;;;;;10.70;3.70;;;7.40;99.90;;;;;;5052570;28;20453;-69
2022/12/30 03:50:48;;;;;;;8.77;4.30;;;7.40;99.90;;;;;;5051386;28;20166;-67
2022/12/30 03:53:14;;;;;;;10.30;3.60;;;7.40;99.90;;;;;;5052529;28;20163;-67
2022/12/30 03:55:39;;;;;;;12.63;3.23;;;7.40;99.90;;;;;;5051871;28;20233;-66
2022/12/30 03:58:06;;;;;;;3.63;2.70;;;7.40;99.90;;;;;;5052451;28;20640;-69
2022/12/30 04:00:32;;;;;;;4.23;2.60;;;7.40;99.90;;;;;;5052722;28;20250;-71
2022/12/30 04:02:57;;;;;;;7.60;3.70;;;7.30;99.90;;;;;;5055924;28;20504;-67
2022/12/30 04:05:23;;;;;;;9.13;4.63;;;7.40;99.90;;;;;;5055086;28;20478;-66
2022/12/30 04:07:49;;;;;;;20.30;3.43;;;7.40;99.90;;;;;;5056015;28;20221;-67
2022/12/30 04:10:14;;;;;;;15.70;4.03;;;7.40;99.90;;;;;;5056224;28;20212;-67
2022/12/30 04:12:40;;;;;;;10.00;3.80;;;7.40;99.90;;;;;;5055956;28;20209;-67
2022/12/30 04:15:06;;;;;;;14.07;3.13;;;7.40;99.90;;;;;;5055126;28;20216;-69
2022/12/30 04:17:32;;;;;;;13.03;4.30;;;7.40;99.90;;;;;;5056081;28;20564;-66
2022/12/30 04:19:58;;;;;;;14.87;3.37;;;7.40;99.90;;;;;;5055876;28;20398;-70
2022/12/30 04:22:23;;;;;;;5.07;2.90;;;7.40;99.90;;;;;;5055246;28;20170;-67
2022/12/30 04:24:49;;;;;;;7.37;3.87;;;7.40;99.90;;;;;;5055042;28;20718;-71
2022/12/30 04:27:15;;;;;;;7.53;3.23;;;7.40;99.90;;;;;;5055595;28;20194;-71
2022/12/30 04:29:40;;;;;;;7.30;3.10;;;7.40;99.90;;;;;;5055729;28;20246;-70
2022/12/30 04:32:06;;;;;;;10.50;3.90;;;7.40;99.90;;;;;;5055647;28;20213;-67
2022/12/30 04:34:32;;;;;;;11.77;3.70;;;7.30;99.90;;;;;;5054846;28;20194;-71
2022/12/30 04:36:58;;;;;;;9.90;3.13;;;7.30;99.90;;;;;;5054457;28;20171;-70
2022/12/30 04:39:23;;;;;;;8.00;3.10;;;7.30;99.90;;;;;;5054815;28;20250;-71
2022/12/30 04:41:49;;;;;;;16.20;2.90;;;7.20;99.90;;;;;;5055516;28;20178;-70
2022/12/30 04:44:15;;;;;;;14.33;2.80;;;7.20;99.90;;;;;;5055126;28;20190;-70
2022/12/30 04:46:40;;;;;;;9.27;3.63;;;7.20;99.90;;;;;;5054767;28;20183;-66
2022/12/30 04:49:06;;;;;;;4.93;2.73;;;7.20;99.90;;;;;;5055217;28;20186;-70
2022/12/30 04:51:32;;;;;;;14.33;4.37;;;7.20;99.90;;;;;;5054042;28;20232;-71
2022/12/30 04:53:57;;;;;;;7.73;4.03;;;7.20;99.90;;;;;;5055169;28;20187;-67
2022/12/30 04:56:23;;;;;;;9.97;3.57;;;7.30;99.90;;;;;;5055016;28;20554;-71
2022/12/30 04:58:49;;;;;;;9.23;3.40;;;7.30;99.90;;;;;;5054601;28;20174;-71
2022/12/30 05:01:14;;;;;;;10.53;3.83;;;7.20;99.90;;;;;;5054967;28;20513;-67
2022/12/30 05:03:40;;;;;;;17.33;3.73;;;7.20;99.90;;;;;;5055088;28;20173;-67
2022/12/30 05:06:06;;;;;;;7.00;3.00;;;7.20;99.90;;;;;;5054307;28;20512;-71
2022/12/30 05:08:33;;;;;;;10.77;4.10;;;7.20;99.90;;;;;;5053595;28;20218;-71
2022/12/30 05:10:58;;;;;;;14.60;3.60;;;7.20;99.90;;;;;;5055043;28;20890;-71
2022/12/30 05:13:24;;;;;;;10.33;2.53;;;7.20;99.90;;;;;;5054138;28;20172;-67
2022/12/30 05:15:50;;;;;;;10.23;2.87;;;7.20;99.90;;;;;;5053424;28;20186;-71
2022/12/30 05:18:15;;;;;;;6.00;3.07;;;7.10;99.90;;;;;;5054915;28;20170;-66
2022/12/30 05:20:41;;;;;;;7.10;3.43;;;7.10;99.90;;;;;;5054729;28;20242;-71
2022/12/30 05:26:13;;;;;;;8.87;2.80;;;7.10;99.90;;;;;;5054617;28;20730;-67
2022/12/30 05:26:34;;;;;;;11.10;3.20;;;7.10;99.90;;;;;;5053768;28;20728;-71
2022/12/30 05:28:42;;;;;;;13.00;3.90;;;7.10;99.90;;;;;;5056663;28;20457;-67
2022/12/30 05:31:08;;;;;;;6.93;3.10;;;7.10;99.90;;;;;;5054532;28;20436;-71
2022/12/30 05:33:34;;;;;;;6.10;3.33;;;7.10;99.90;;;;;;5054487;28;20433;-67
2022/12/30 05:36:00;;;;;;;8.10;3.10;;;7.00;99.90;;;;;;5053036;28;20488;-71
2022/12/30 05:38:25;;;;;;;11.00;3.90;;;6.90;99.90;;;;;;5054264;28;20171;-71
2022/12/30 05:40:51;;;;;;;15.50;3.30;;;6.90;99.90;;;;;;5054482;28;20163;-66
2022/12/30 05:43:17;;;;;;;9.43;3.20;;;6.90;99.90;;;;;;5054244;28;20224;-71
2022/12/30 05:45:43;;;;;;;15.23;2.90;;;6.80;99.90;;;;;;5053400;28;20324;-69
2022/12/30 05:48:08;;;;;;;10.10;4.43;;;6.80;99.90;;;;;;5054266;28;20183;-70
2022/12/30 05:50:34;;;;;;;15.03;3.67;;;6.80;99.90;;;;;;5054122;28;20198;-66
2022/12/30 05:53:00;;;;;;;12.50;3.23;;;6.70;99.90;;;;;;5052878;28;20202;-67
2022/12/30 05:55:25;;;;;;;9.83;3.47;;;6.70;99.90;;;;;;5052583;28;20179;-67
2022/12/30 05:57:51;;;;;;;8.73;2.90;;;6.70;99.90;;;;;;5053909;28;20536;-66
2022/12/30 06:00:17;;;;;;;13.77;3.60;;;6.70;99.90;;;;;;5054086;28;20171;-66
2022/12/30 06:02:42;;;;;;;18.83;3.80;;;6.70;99.90;;;;;;5053819;28;20179;-66
2022/12/30 06:05:09;;;;;;;18.93;3.40;;;6.70;99.90;;;;;;5053100;28;20596;-70
2022/12/30 06:07:34;;;;;;;4.07;2.60;;;6.60;99.90;;;;;;5053807;28;20190;-69
2022/12/30 06:10:00;;;;;;;8.80;3.27;;;6.60;99.90;;;;;;5053696;28;20504;-66
2022/12/30 06:12:26;;;;;;;18.43;5.07;;;6.50;99.90;;;;;;5053134;28;20250;-67
2022/12/30 06:14:51;;;;;;;14.67;3.30;;;6.40;99.90;;;;;;5053115;28;20183;-70
2022/12/30 06:17:17;;;;;;;15.33;3.73;;;6.40;99.90;;;;;;5053717;28;20513;-67
2022/12/30 06:19:43;;;;;;;5.03;2.83;;;6.30;99.90;;;;;;5053546;28;20178;-67
2022/12/30 06:22:09;;;;;;;11.07;3.93;;;6.40;99.90;;;;;;5053598;28;20197;-67
2022/12/30 06:24:34;;;;;;;7.10;3.87;;;6.30;99.90;;;;;;5051993;28;20183;-67
2022/12/30 06:27:00;;;;;;;7.87;3.07;;;6.30;99.90;;;;;;5053553;28;20195;-67
2022/12/30 06:29:25;;;;;;;8.77;3.80;;;6.30;1.00;;;;;;5052825;28;20249;-71
2022/12/30 06:31:51;;;;;;;5.87;2.63;;;6.20;1.00;;;;;;5053216;28;20636;-71
2022/12/30 06:34:17;;;;;;;9.70;3.43;;;6.30;1.00;;;;;;5052990;28;20265;-67
2022/12/30 06:36:42;;;;;;;8.30;3.50;;;6.20;1.00;;;;;;5053326;28;20176;-71
2022/12/30 06:39:08;;;;;;;8.20;4.17;;;6.20;1.00;;;;;;5053302;28;20171;-67
2022/12/30 06:41:34;;;;;;;4.23;2.80;;;6.20;1.00;;;;;;5053383;28;20170;-67
2022/12/30 06:43:59;;;;;;;17.17;4.10;;;6.20;1.00;;;;;;5053046;28;20190;-71
2022/12/30 06:46:25;;;;;;;22.10;3.83;;;6.20;1.00;;;;;;5051913;28;20208;-67
2022/12/30 06:48:51;;;;;;;9.23;3.27;;;6.20;1.00;;;;;;5053216;28;20277;-67
2022/12/30 06:51:16;;;;;;;11.03;3.13;;;6.20;1.00;;;;;;5053024;28;20167;-71
2022/12/30 06:53:42;;;;;;;9.10;4.23;;;6.20;1.00;;;;;;5053075;28;20246;-71
2022/12/30 06:56:08;;;;;;;9.33;5.33;;;6.20;1.00;;;;;;5052281;28;20171;-69
2022/12/30 06:58:34;;;;;;;3.73;3.30;;;6.10;1.00;;;;;;5052987;28;20178;-71
2022/12/30 07:00:59;;;;;;;15.97;4.13;;;6.10;1.00;;;;;;5053133;28;20168;-72
2022/12/30 07:03:25;;;;;;;8.20;3.40;;;6.10;1.00;;;;;;5052880;28;20173;-66
2022/12/30 07:05:51;;;;;;;6.87;4.50;;;6.10;1.00;;;;;;5051417;28;20196;-67
2022/12/30 07:08:16;;;;;;;14.00;4.07;;;6.10;1.00;;;;;;5052719;28;20718;-67
2022/12/30 07:10:42;;;;;;;12.47;4.40;;;6.10;1.00;;;;;;5052978;28;20223;-71
2022/12/30 07:13:09;;;;;;;17.20;4.50;;;6.00;1.00;;;;;;5052844;28;20181;-71
2022/12/30 07:15:34;;;;;;;9.00;4.10;;;6.00;1.00;;;;;;5052543;28;20418;-71
2022/12/30 07:18:00;;;;;;;12.63;4.10;;;6.00;1.00;;;;;;5052811;28;20405;-67
2022/12/30 07:20:26;;;;;;;11.47;4.10;;;6.00;1.00;;;;;;5052678;28;20172;-71
2022/12/30 07:22:52;;;;;;;14.30;4.30;;;6.00;1.00;;;;;;5052194;28;20173;-67
2022/12/30 07:25:17;;;;;;;12.60;5.23;;;6.00;1.00;;;;;;5052148;28;20190;-71
2022/12/30 07:27:43;;;;;;;17.23;4.57;;;6.00;1.00;;;;;;5051449;28;20462;-71
2022/12/30 07:30:09;;;;;;;16.77;6.70;;;6.00;1.00;;;;;;5052792;28;20247;-71
2022/12/30 07:32:35;;;;;;;9.30;3.87;;;6.00;1.00;;;;;;5052631;28;20167;-67
2022/12/30 07:35:02;;;;;;;9.07;3.73;;;6.00;1.00;;;;;;5051987;28;20461;-71
2022/12/30 07:37:28;;;;;;;11.30;3.40;;;6.10;1.00;;;;;;5056316;28;20171;-67
2022/12/30 07:39:53;;;;;;;5.60;3.70;;;6.10;1.00;;;;;;5056039;28;20762;-71
2022/12/30 07:42:19;;;;;;;25.47;6.13;;;6.20;1.00;;;;;;5056940;28;20226;-71
2022/12/30 07:44:45;;;;;;;12.30;6.40;;;6.20;1.00;;;;;;5055744;28;20289;-71
2022/12/30 07:47:10;;;;;;;9.50;4.40;;;6.20;1.00;;;;;;5056418;28;20197;-71
2022/12/30 07:49:36;;;;;;;18.13;5.00;;;6.30;1.00;;;;;;5056567;28;20167;-67
2022/12/30 07:52:03;;;;;;;9.83;4.63;;;6.30;1.00;;;;;;5056800;28;20192;-67
2022/12/30 07:54:29;;;;;;;11.27;4.90;;;6.40;1.00;;;;;;5055509;28;20187;-71
2022/12/30 07:56:55;;;;;;;10.93;5.70;;;6.40;1.00;;;;;;5056352;28;20402;-72
2022/12/30 07:59:20;;;;;;;17.20;6.93;;;6.40;1.00;;;;;;5055667;28;20173;-67
2022/12/30 08:01:46;;;;;;;13.20;4.03;;;6.40;1.00;;;;;;5056216;28;20507;-71
2022/12/30 08:04:12;;;;;;;9.40;4.57;;;6.50;1.00;;;;;;5055866;28;20439;-71
2022/12/30 08:06:37;;;;;;;14.00;4.73;;;6.50;1.00;;;;;;5055575;28;20175;-71
2022/12/30 08:09:06;;;;;;;8.33;4.70;;;6.50;1.00;;;;;;5056031;28;20199;-67
2022/12/30 08:11:32;;;;;;;8.87;4.70;;;6.50;1.00;;;;;;5056116;28;20241;-66
2022/12/30 08:13:58;;;;;;;7.47;4.60;;;6.60;1.00;;;;;;5055927;28;20424;-67
2022/12/30 08:16:24;;;;;;;9.53;4.83;;;6.60;1.00;;;;;;5054762;28;20804;-71
2022/12/30 08:18:51;;;;;;;7.63;5.27;;;6.70;1.00;;;;;;5055820;28;20458;-67
2022/12/30 08:21:17;;;;;;;13.90;5.77;;;6.60;1.00;;;;;;5055783;28;20368;-71
2022/12/30 08:23:44;;;;;;;9.27;5.33;;;6.60;1.00;;;;;;5055793;28;20405;-72
2022/12/30 08:26:19;;;;;;;13.77;5.60;;;6.60;1.00;;;;;;5055516;28;20416;-71
2022/12/30 08:28:45;;;;;;;8.87;5.30;;;6.60;1.00;;;;;;5055590;28;20490;-67
2022/12/30 08:31:23;;;;;;;20.30;7.50;;;6.70;1.00;;;;;;5055584;28;20425;-66
2022/12/30 08:33:49;;;;;;;16.77;6.43;;;6.70;1.00;;;;;;5055606;28;20386;-71
2022/12/30 08:36:17;;;;;;;11.57;6.17;;;6.70;1.00;;;;;;5053073;28;20413;-71
2022/12/30 08:38:49;;;;;;;10.63;6.93;;;6.60;1.00;;;;;;5055505;28;20455;-71
2022/12/30 08:41:24;;;;;;;15.40;7.10;;;6.70;1.00;;;;;;5055454;28;20413;-67
2022/12/30 08:43:50;;;;;;;15.77;7.17;;;6.60;1.00;;;;;;5055280;28;20499;-67
2022/12/30 08:46:17;;;;;;;9.80;5.97;;;6.70;1.00;;;;;;5054700;28;20490;-66
2022/12/30 08:48:44;;;;;;;15.37;5.80;;;6.70;1.00;;;;;;5054362;28;20532;-67
2022/12/30 08:51:10;;;;;;;12.40;6.70;;;6.70;1.00;;;;;;5055153;28;20443;-71
2022/12/30 08:53:36;;;;;;;13.70;5.80;;;6.60;1.00;;;;;;5054795;28;20426;-66
2022/12/30 08:56:03;;;;;;;11.77;6.00;;;6.70;1.00;;;;;;5053590;28;20502;-66
2022/12/30 08:58:29;;;;;;;15.00;6.77;;;6.70;1.00;;;;;;5055088;28;20177;-66
2022/12/30 09:00:55;;;;;;;11.57;6.63;;;6.70;1.00;;;;;;5055152;28;20405;-67
2022/12/30 09:03:20;;;;;;;16.27;7.73;;;6.60;1.00;;;;;;5053761;28;20456;-71
2022/12/30 09:05:52;;;;;;;19.13;9.10;;;6.70;1.00;;;;;;5053056;28;20586;-67
2022/12/30 09:08:20;;;;;;;13.53;7.40;;;6.70;1.00;;;;;;5053767;28;20194;-71
2022/12/30 09:11:06;;;;;;;15.60;6.80;;;6.80;1.00;;;;;;5054558;28;20389;-67
2022/12/30 09:13:36;;;;;;;17.57;6.63;;;6.80;1.00;;;;;;5052712;28;20455;-71
2022/12/30 09:16:03;;;;;;;8.60;6.43;;;6.90;1.00;;;;;;5054136;28;20453;-68
2022/12/30 09:18:29;;;;;;;18.27;7.67;;;6.90;1.00;;;;;;5054800;28;20410;-71
2022/12/30 09:20:54;;;;;;;10.97;7.50;;;6.90;1.00;;;;;;5054646;28;20481;-67
2022/12/30 09:23:20;;;;;;;14.33;7.43;;;6.90;1.00;;;;;;5054616;28;20175;-68
2022/12/30 09:25:46;;;;;;;21.03;8.27;;;7.00;1.00;;;;;;5053830;28;20186;-72
2022/12/30 09:28:12;;;;;;;16.80;7.97;;;7.10;1.00;;;;;;5054468;28;20202;-72
2022/12/30 09:30:38;;;;;;;16.57;7.40;;;7.00;1.00;;;;;;5054755;28;20237;-71
2022/12/30 09:33:04;;;;;;;13.83;7.33;;;7.00;1.00;;;;;;5053844;28;20428;-66
2022/12/30 09:35:30;;;;;;;17.37;8.60;;;7.10;1.00;;;;;;5053634;28;20194;-72
2022/12/30 09:37:56;;;;;;;9.50;7.63;;;7.10;1.00;;;;;;5054463;28;20410;-67
2022/12/30 09:40:39;;;;;;;11.53;7.67;;;7.10;1.00;;;;;;5054343;28;20174;-66
2022/12/30 09:43:17;;;;;;;19.97;7.00;;;7.00;1.00;;;;;;5054440;28;20178;-66
2022/12/30 09:46:01;;;;;;;10.30;8.13;;;6.90;1.00;;;;;;5053433;28;20484;-66
2022/12/30 09:48:33;;;;;;;19.47;7.60;;;6.80;1.00;;;;;;5054187;28;20775;-71
2022/12/30 09:51:05;;;;;;;11.67;7.20;;;6.80;1.00;;;;;;5054215;28;20761;-66
2022/12/30 09:53:43;;;;;;;13.20;6.90;;;6.80;1.00;;;;;;5053427;28;20431;-67
2022/12/30 09:56:21;;;;;;;16.40;7.87;;;6.80;1.00;;;;;;5053392;28;20501;-72
2022/12/30 09:58:47;;;;;;;15.20;8.20;;;6.80;1.00;;;;;;5053766;28;20413;-71
2022/12/30 10:01:20;;;;;;;12.17;8.03;;;6.70;1.00;;;;;;5052749;28;20473;-68
2022/12/30 10:03:46;;;;;;;11.33;7.50;;;6.70;1.00;;;;;;5053807;28;20897;-67
2022/12/30 10:06:24;;;;;;;14.43;7.40;;;6.80;1.00;;;;;;5053211;28;20632;-66
2022/12/30 10:08:50;;;;;;;15.80;5.87;;;6.80;1.00;;;;;;5052399;28;20465;-71
2022/12/30 10:11:31;;;;;;;9.57;6.80;;;6.90;1.00;;;;;;5053127;28;20407;-70
2022/12/30 10:14:27;;;;;;;13.43;5.77;;;6.90;1.00;;;;;;5053522;28;20244;-71
2022/12/30 10:17:05;;;;;;;8.80;5.73;;;6.90;1.00;;;;;;5052376;28;20470;-70
2022/12/30 10:19:48;;;;;;;12.50;6.60;;;6.90;1.00;;;;;;5053462;28;20412;-67
2022/12/30 10:22:31;;;;;;;13.10;5.30;;;6.90;1.00;;;;;;5053518;28;20412;-66
2022/12/30 10:25:38;;;;;;;13.13;5.87;;;6.90;1.00;;;;;;5052817;28;20520;-66
2022/12/30 10:28:10;;;;;;;5.97;5.20;;;6.90;1.00;;;;;;5051116;28;21067;-71
2022/12/30 10:30:45;;;;;;;14.00;6.33;;;6.90;1.00;;;;;;5052627;28;20420;-66
2022/12/30 10:33:20;;;;;;;8.20;4.70;;;7.00;1.00;;;;;;5053567;28;20967;-70
2022/12/30 10:35:53;;;;;;;10.80;4.17;;;7.00;1.00;;;;;;5052628;28;20463;-71
2022/12/30 10:38:22;;;;;;;6.77;5.10;;;7.10;1.00;;;;;;5053262;28;20735;-66
2022/12/30 10:41:12;;;;;;;10.80;5.20;;;7.10;1.00;;;;;;5051954;28;20410;-71
2022/12/30 10:44:18;;;;;;;15.57;5.63;;;7.20;1.00;;;;;;5053029;28;20547;-67
2022/12/30 10:47:11;;;;;;;9.10;4.90;;;7.10;1.00;;;;;;5052966;28;20425;-69
2022/12/30 10:50:14;;;;;;;12.53;5.90;;;7.10;1.00;;;;;;5052587;28;20417;-65
2022/12/30 10:52:40;;;;;;;12.53;5.20;;;7.20;1.00;;;;;;5034393;28;20434;-66
2022/12/30 10:55:28;;;;;;;9.90;4.80;;;7.30;1.00;;;;;;5047338;28;20436;-70
2022/12/30 10:58:35;;;;;;;20.43;6.37;;;7.40;1.00;;;;;;5051827;28;20566;-68
2022/12/30 11:01:01;;;;;;;15.13;6.10;;;7.40;1.00;;;;;;5053136;28;20404;-70
2022/12/30 11:03:30;;;;;;;6.30;4.73;;;7.40;1.00;;;;;;5051551;28;20405;-69
2022/12/30 11:06:28;;;;;;;7.70;4.73;;;7.40;1.00;;;;;;5051958;28;20485;-67
2022/12/30 11:09:21;;;;;;;10.40;4.67;;;7.50;1.00;;;;;;5051345;28;20464;-66
2022/12/30 11:14:43;;;;;;;14.80;5.17;;;7.40;1.00;;;;;;5052478;28;20481;-69
2022/12/30 11:17:25;;;;;;;12.10;5.63;;;7.40;1.00;;;;;;5052881;28;20501;-66
2022/12/30 11:20:05;;;;;;;9.00;4.43;;;7.40;1.00;;;;;;5052864;28;20409;-67
2022/12/30 11:22:31;;;;;;;9.10;5.83;;;7.40;1.00;;;;;;5052760;28;20404;-69
2022/12/30 11:25:13;;;;;;;7.57;3.90;;;7.40;1.00;;;;;;5051458;28;20921;-67
2022/12/30 11:27:47;;;;;;;12.53;4.90;;;7.40;1.00;;;;;;5052723;28;20475;-66
2022/12/30 11:30:39;;;;;;;20.03;6.37;;;7.40;1.00;;;;;;5052676;28;20397;-70
2022/12/30 11:33:16;;;;;;;7.00;3.90;;;7.50;1.00;;;;;;5052864;28;20390;-66
2022/12/30 11:35:49;;;;;;;9.20;4.40;;;7.50;1.00;;;;;;5051101;28;20429;-71
2022/12/30 11:38:36;;;;;;;4.53;3.60;;;7.50;99.90;;;;;;5052513;28;20473;-67
2022/12/30 11:41:17;;;;;;;12.33;3.77;;;7.50;99.90;;;;;;5051513;28;20421;-71
2022/12/30 11:43:45;;;;;;;12.03;4.30;;;7.60;99.90;;;;;;5052320;28;20440;-66
2022/12/30 11:46:14;;;;;;;9.53;5.30;;;7.60;99.90;;;;;;5050546;28;20440;-66
2022/12/30 11:48:50;;;;;;;8.80;5.47;;;7.60;99.90;;;;;;5051144;28;20448;-66
2022/12/30 11:51:23;;;;;;;9.43;5.00;;;7.60;99.90;;;;;;5052482;28;20779;-70
2022/12/30 11:54:00;;;;;;;11.60;4.47;;;7.70;99.90;;;;;;5052578;28;20386;-66
2022/12/30 11:56:27;;;;;;;6.43;4.30;;;7.70;99.90;;;;;;5052038;28;20504;-67
2022/12/30 11:58:53;;;;;;;7.13;4.37;;;7.70;99.90;;;;;;5052429;28;20938;-70
2022/12/30 12:01:19;;;;;;;12.90;3.67;;;7.60;99.90;;;;;;5052038;28;20427;-71
2022/12/30 12:03:57;;;;;;;6.73;3.70;;;7.60;99.90;;;;;;5052264;28;20402;-70
2022/12/30 12:06:23;;;;;;;8.93;3.53;;;7.70;99.90;;;;;;5051779;28;20605;-66
2022/12/30 12:09:10;;;;;;;5.13;3.47;;;7.70;99.90;;;;;;5051041;28;20457;-71
2022/12/30 12:11:41;;;;;;;4.90;2.97;;;7.80;99.90;;;;;;5052356;28;20195;-68
2022/12/30 12:14:22;;;;;;;6.03;3.20;;;7.80;99.90;;;;;;5052049;28;20437;-70
2022/12/30 12:16:58;;;;;;;11.73;3.40;;;7.80;99.90;;;;;;5052099;28;20390;-67
2022/12/30 12:19:39;;;;;;;8.00;3.20;;;7.80;99.90;;;;;;5051858;28;20390;-70
2022/12/30 12:22:21;;;;;;;8.03;3.10;;;7.80;99.90;;;;;;5052206;28;20903;-70
2022/12/30 12:24:51;;;;;;;8.17;3.13;;;7.80;99.90;;;;;;5054956;28;20928;-70
2022/12/30 12:27:18;;;;;;;6.27;4.23;;;7.80;99.90;;;;;;5055680;28;20469;-70
2022/12/30 12:29:45;;;;;;;3.97;3.50;;;7.80;99.90;;;;;;5055893;28;20372;-70
2022/12/30 12:32:42;;;;;;;10.03;3.17;;;7.80;99.90;;;;;;5055740;28;20421;-66
2022/12/30 12:35:23;;;;;;;6.97;3.40;;;7.80;99.90;;;;;;5054826;28;20830;-66
2022/12/30 12:38:17;;;;;;;7.60;4.00;;;7.80;99.90;;;;;;5055286;28;20436;-70
2022/12/30 12:41:21;;;;;;;8.37;3.60;;;7.80;99.90;;;;;;5055519;28;20411;-70
2022/12/30 12:44:17;;;;;;;7.50;2.70;;;7.80;99.90;;;;;;5055546;28;20401;-66
2022/12/30 12:46:56;;;;;;;6.20;3.53;;;7.80;99.90;;;;;;5055275;28;20429;-70
2022/12/30 12:49:24;;;;;;;8.23;2.90;;;7.80;99.90;;;;;;5055413;28;20417;-67
2022/12/30 12:51:59;;;;;;;3.80;2.40;;;7.70;99.90;;;;;;5055424;28;20898;-70
2022/12/30 12:54:44;;;;;;;11.53;3.93;;;7.70;99.90;;;;;;5054060;28;20924;-70
2022/12/30 12:57:37;;;;;;;3.13;2.60;;;7.70;99.90;;;;;;5055237;28;20398;-70
2022/12/30 13:00:18;;;;;;;7.43;2.57;;;7.70;99.90;;;;;;5055164;28;20408;-70
2022/12/30 13:02:46;;;;;;;6.97;2.97;;;7.70;99.90;;;;;;5055135;28;20436;-70
2022/12/30 13:06:10;;;;;;;10.93;3.10;;;7.80;99.90;;;;;;5054373;28;20802;-70
2022/12/30 13:09:03;;;;;;;4.97;2.20;;;7.80;99.90;;;;;;4977221;28;20538;-70
2022/12/30 13:11:42;;;;;;;7.83;2.70;;;7.70;99.90;;;;;;5053389;28;20421;-68
2022/12/30 13:14:08;;;;;;;9.13;2.93;;;7.70;99.90;;;;;;5054273;28;20412;-67
2022/12/30 13:16:41;;;;;;;5.57;2.73;;;7.70;99.90;;;;;;5054364;28;20402;-68
2022/12/30 13:19:13;;;;;;;5.70;2.70;;;7.70;99.90;;;;;;5054900;28;20632;-70
2022/12/30 13:21:40;;;;;;;3.97;2.47;;;7.70;99.90;;;;;;5054854;28;20435;-70
2022/12/30 13:24:07;;;;;;;5.93;2.80;;;7.70;99.90;;;;;;5053528;28;20496;-70
2022/12/30 13:26:35;;;;;;;15.67;5.33;;;7.80;99.90;;;;;;5054240;28;21032;-67
2022/12/30 13:29:03;;;;;;;11.43;4.00;;;7.80;99.90;;;;;;5054613;28;20459;-70
2022/12/30 13:32:00;;;;;;;3.23;2.97;;;7.80;99.90;;;;;;5053870;28;20397;-67
2022/12/30 13:34:25;;;;;;;6.03;2.40;;;7.80;99.90;;;;;;5052155;28;20418;-67
2022/12/30 13:37:20;;;;;;;8.03;3.40;;;7.80;99.90;;;;;;5054433;28;20376;-71
2022/12/30 13:39:57;;;;;;;3.10;2.63;;;7.70;99.90;;;;;;5054542;28;20248;-71
2022/12/30 13:42:48;;;;;;;5.30;2.70;;;7.70;99.90;;;;;;5054542;28;20812;-67
2022/12/30 13:45:43;;;;;;;5.97;3.00;;;7.70;99.90;;;;;;5053481;28;20442;-69
2022/12/30 13:48:21;;;;;;;3.87;2.90;;;7.70;99.90;;;;;;5053771;28;20560;-68
2022/12/30 13:51:16;;;;;;;4.23;2.57;;;7.70;99.90;;;;;;5053031;28;20981;-71
2022/12/30 13:53:50;;;;;;;3.27;2.50;;;7.70;99.90;;;;;;5054113;28;20782;-68
2022/12/30 13:56:32;;;;;;;5.07;2.67;;;7.60;99.90;;;;;;5053429;28;20432;-71
2022/12/30 13:58:58;;;;;;;4.43;2.83;;;7.60;99.90;;;;;;5054368;28;20755;-68
2022/12/30 14:01:39;;;;;;;7.27;3.17;;;7.60;99.90;;;;;;5053939;28;20380;-70
2022/12/30 14:04:11;;;;;;;5.03;2.80;;;7.60;99.90;;;;;;5053626;28;20193;-68
2022/12/30 14:06:50;;;;;;;5.10;2.97;;;7.60;99.90;;;;;;5052864;28;20906;-70
2022/12/30 14:09:18;;;;;;;4.10;2.60;;;7.50;99.90;;;;;;5053840;28;20949;-70
2022/12/30 14:12:03;;;;;;;4.30;1.63;;;7.50;99.90;;;;;;5053822;28;20393;-68